createdAt,value
2023-02-11T00:01:10.832Z,53.53
2023-02-11T00:03:39.699Z,56.92
2023-02-11T00:06:09.365Z,59.72
2023-02-11T00:08:37.357Z,57.97
2023-02-11T00:11:05.590Z,53.65
2023-02-11T00:13:34.883Z,59.92
2023-02-11T00:16:08.060Z,53.65
2023-02-11T00:18:36.323Z,54.42
2023-02-11T00:21:08.419Z,58.60
2023-02-11T00:23:36.680Z,55.35
2023-02-11T00:26:04.909Z,52.58
2023-02-11T00:28:33.977Z,54.30
2023-02-11T00:31:02.533Z,53.65
2023-02-11T00:33:30.344Z,51.88
2023-02-11T00:35:57.982Z,53.40
2023-02-11T00:38:25.602Z,54.15
2023-02-11T00:40:53.279Z,63.00
2023-02-11T00:43:20.922Z,54.55
2023-02-11T00:45:50.353Z,63.28
2023-02-11T00:48:18.129Z,51.30
2023-02-11T00:50:45.759Z,58.17
2023-02-11T00:53:13.424Z,52.03
2023-02-11T00:55:41.066Z,56.75
2023-02-11T00:58:08.717Z,52.10
2023-02-11T01:00:36.427Z,53.17
2023-02-11T01:03:05.469Z,50.45
2023-02-11T01:05:33.176Z,53.90
2023-02-11T01:08:00.866Z,53.78
2023-02-11T01:10:28.817Z,52.10
2023-02-11T01:12:56.598Z,49.30
2023-02-11T01:15:24.436Z,50.40
2023-02-11T01:17:52.125Z,51.25
2023-02-11T01:20:23.573Z,53.10
2023-02-11T01:22:51.422Z,51.13
2023-02-11T01:25:19.363Z,51.13
2023-02-11T01:27:47.004Z,58.88
2023-02-11T01:30:15.747Z,57.05
2023-02-11T01:32:43.358Z,58.95
2023-02-11T01:35:11.047Z,51.33
2023-02-11T01:37:40.117Z,57.90
2023-02-11T01:40:14.430Z,57.85
2023-02-11T01:42:42.231Z,53.05
2023-02-11T01:45:53.421Z,56.88
2023-02-11T01:48:23.907Z,54.20
2023-02-11T01:53:41.141Z,50.03
2023-02-11T01:56:26.822Z,55.38
2023-02-11T01:58:57.955Z,51.88
2023-02-11T02:01:28.599Z,54.90
2023-02-11T02:04:00.852Z,53.25
2023-02-11T02:06:34.320Z,51.05
2023-02-11T02:09:08.682Z,50.90
2023-02-11T02:11:37.223Z,51.60
2023-02-11T02:14:05.009Z,53.55
2023-02-11T02:16:36.030Z,57.20
2023-02-11T02:19:25.327Z,49.45
2023-02-11T02:22:17.121Z,59.10
2023-02-11T02:25:20.225Z,52.20
2023-02-11T02:27:54.966Z,54.10
2023-02-11T02:31:07.728Z,57.72
2023-02-11T02:33:49.171Z,49.80
2023-02-11T02:36:24.275Z,52.20
2023-02-11T02:38:55.551Z,52.63
2023-02-11T02:41:28.141Z,54.85
2023-02-11T02:43:56.460Z,56.40
2023-02-11T02:46:26.557Z,53.33
2023-02-11T02:48:57.022Z,54.17
2023-02-11T02:54:36.911Z,56.42
2023-02-11T02:57:17.288Z,53.60
2023-02-11T02:59:58.995Z,49.38
2023-02-11T03:02:31.277Z,50.95
2023-02-11T03:05:07.381Z,54.15
2023-02-11T03:07:41.126Z,47.25
2023-02-11T03:10:13.849Z,58.97
2023-02-11T03:12:45.206Z,52.88
2023-02-11T03:15:14.835Z,48.63
2023-02-11T03:17:45.613Z,57.70
2023-02-11T03:20:18.160Z,51.70
2023-02-11T03:22:51.522Z,53.08
2023-02-11T03:25:20.380Z,51.75
2023-02-11T03:27:53.855Z,53.97
2023-02-11T03:30:27.694Z,52.58
2023-02-11T03:33:02.058Z,56.80
2023-02-11T03:35:36.493Z,51.47
2023-02-11T03:38:08.583Z,59.28
2023-02-11T03:40:39.177Z,54.95
2023-02-11T03:43:10.924Z,58.42
2023-02-11T03:45:40.216Z,54.20
2023-02-11T03:48:13.554Z,53.83
2023-02-11T03:50:44.461Z,51.75
2023-02-11T03:53:14.071Z,54.63
2023-02-11T03:55:44.063Z,50.00
2023-02-11T03:58:12.271Z,59.22
2023-02-11T04:00:42.621Z,53.20
2023-02-11T04:03:11.230Z,51.03
2023-02-11T04:05:40.153Z,50.38
2023-02-11T04:08:09.560Z,53.72
2023-02-11T04:10:37.247Z,57.90
2023-02-11T04:13:04.993Z,55.60
2023-02-11T04:15:32.638Z,58.65
2023-02-11T04:18:00.225Z,56.17
2023-02-11T04:20:27.869Z,51.22
2023-02-11T04:22:55.509Z,54.03
2023-02-11T04:25:25.896Z,56.63
2023-02-11T04:27:53.797Z,58.95
2023-02-11T04:30:21.675Z,55.75
2023-02-11T04:32:49.374Z,58.92
2023-02-11T04:35:17.173Z,63.63
2023-02-11T04:37:44.830Z,63.47
2023-02-11T04:40:12.729Z,59.55
2023-02-11T04:42:41.936Z,61.20
2023-02-11T04:45:10.396Z,58.28
2023-02-11T04:47:38.075Z,65.38
2023-02-11T04:50:06.377Z,61.83
2023-02-11T04:52:34.170Z,62.25
2023-02-11T04:55:01.847Z,60.63
2023-02-11T04:57:29.583Z,64.15
2023-02-11T04:59:58.683Z,62.28
2023-02-11T05:02:26.421Z,64.65
2023-02-11T05:04:54.050Z,64.70
2023-02-11T05:07:21.733Z,65.53
2023-02-11T05:09:49.428Z,66.68
2023-02-11T05:12:17.145Z,67.75
2023-02-11T05:14:44.814Z,62.75
2023-02-11T05:17:13.778Z,62.55
2023-02-11T05:19:42.784Z,70.95
2023-02-11T05:22:10.485Z,64.25
2023-02-11T05:24:38.103Z,72.03
2023-02-11T05:27:05.701Z,66.22
2023-02-11T05:29:33.385Z,72.63
2023-02-11T05:32:01.127Z,62.72
2023-02-11T05:34:30.188Z,72.65
2023-02-11T05:36:57.898Z,68.38
2023-02-11T05:39:25.562Z,72.82
2023-02-11T05:41:53.221Z,71.07
2023-02-11T05:44:21.061Z,72.57
2023-02-11T05:46:49.154Z,75.35
2023-02-11T05:49:17.978Z,75.85
2023-02-11T05:51:47.000Z,66.53
2023-02-11T05:54:15.187Z,69.65
2023-02-11T05:56:44.828Z,65.88
2023-02-11T05:59:15.167Z,73.80
2023-02-11T06:01:43.091Z,74.20
2023-02-11T06:04:10.816Z,68.57
2023-02-11T06:06:38.436Z,76.03
2023-02-11T06:09:07.462Z,79.65
2023-02-11T06:11:35.141Z,74.18
2023-02-11T06:14:03.017Z,76.75
2023-02-11T06:16:30.873Z,71.90
2023-02-11T06:18:59.223Z,75.70
2023-02-11T06:21:42.406Z,74.28
2023-02-11T06:24:13.249Z,77.50
2023-02-11T06:26:41.082Z,76.90
2023-02-11T06:29:08.818Z,78.00
2023-02-11T06:31:38.847Z,77.05
2023-02-11T06:34:06.730Z,79.47
2023-02-11T06:36:34.462Z,73.15
2023-02-11T06:39:02.168Z,80.47
2023-02-11T06:41:31.259Z,80.38
2023-02-11T06:43:58.940Z,78.05
2023-02-11T06:46:26.711Z,85.35
2023-02-11T06:48:54.465Z,79.90
2023-02-11T06:51:22.220Z,75.43
2023-02-11T06:53:50.300Z,89.25
2023-02-11T06:56:21.311Z,85.03
2023-02-11T06:58:54.594Z,82.70
2023-02-11T07:01:22.945Z,84.70
2023-02-11T07:03:51.226Z,87.18
2023-02-11T07:06:21.999Z,83.15
2023-02-11T07:08:50.379Z,80.63
2023-02-11T07:11:20.488Z,81.65
2023-02-11T07:13:49.998Z,82.00
2023-02-11T07:16:19.962Z,78.55
2023-02-11T07:18:49.357Z,85.07
2023-02-11T07:21:19.203Z,85.20
2023-02-11T07:23:47.134Z,78.57
2023-02-11T07:26:16.837Z,85.43
2023-02-11T07:28:45.559Z,86.25
2023-02-11T07:31:17.059Z,92.68
2023-02-11T07:33:45.831Z,83.90
2023-02-11T07:36:15.443Z,78.15
2023-02-11T07:38:44.124Z,84.23
2023-02-11T07:41:13.351Z,87.70
2023-02-11T07:43:41.921Z,87.60
2023-02-11T07:46:11.792Z,88.78
2023-02-11T07:48:41.214Z,78.40
2023-02-11T07:51:10.639Z,84.03
2023-02-11T07:53:38.455Z,82.10
2023-02-11T07:56:07.306Z,78.90
2023-02-11T07:58:35.440Z,91.03
2023-02-11T08:01:04.203Z,90.32
2023-02-11T08:03:32.640Z,81.55
2023-02-11T08:06:04.732Z,85.13
2023-02-11T08:08:32.369Z,83.63
2023-02-11T08:11:00.244Z,94.55
2023-02-11T08:13:27.956Z,84.25
2023-02-11T08:15:58.454Z,91.40
2023-02-11T08:20:53.660Z,76.25
2023-02-11T08:23:22.679Z,86.35
2023-02-11T08:25:50.326Z,87.95
2023-02-11T08:28:18.026Z,92.78
2023-02-11T08:30:45.738Z,81.10
2023-02-11T08:33:13.402Z,85.55
2023-02-11T08:35:41.388Z,85.85
2023-02-11T08:38:09.464Z,80.57
2023-02-11T08:40:38.485Z,85.78
2023-02-11T08:43:08.109Z,88.22
2023-02-11T08:45:35.957Z,86.82
2023-02-11T08:48:03.600Z,85.82
2023-02-11T08:50:32.217Z,85.72
2023-02-11T08:52:59.910Z,84.93
2023-02-11T08:55:27.571Z,85.28
2023-02-11T08:57:56.734Z,79.18
2023-02-11T09:00:24.513Z,75.47
2023-02-11T09:02:52.127Z,83.18
2023-02-11T09:05:19.807Z,85.40
2023-02-11T09:07:47.474Z,74.07
2023-02-11T09:10:15.419Z,81.32
2023-02-11T09:12:43.111Z,77.70
2023-02-11T09:15:12.295Z,83.20
2023-02-11T09:17:39.955Z,77.18
2023-02-11T09:20:10.847Z,71.82
2023-02-11T09:22:38.643Z,77.43
2023-02-11T09:25:06.912Z,80.40
2023-02-11T09:27:34.561Z,79.75
2023-02-11T09:30:02.204Z,82.72
2023-02-11T09:32:31.313Z,73.95
2023-02-11T09:34:58.950Z,72.35
2023-02-11T09:37:26.763Z,80.63
2023-02-11T09:39:54.531Z,77.88
2023-02-11T09:42:40.470Z,78.28
2023-02-11T09:45:17.248Z,76.18
2023-02-11T09:47:51.707Z,78.72
2023-02-11T09:50:24.523Z,72.50
2023-02-11T09:52:57.255Z,83.03
2023-02-11T09:55:29.194Z,77.15
2023-02-11T09:57:57.903Z,78.63
2023-02-11T10:00:29.620Z,77.00
2023-02-11T10:03:17.968Z,72.05
2023-02-11T10:06:07.252Z,83.70
2023-02-11T10:08:46.696Z,72.15
2023-02-11T10:11:31.345Z,76.53
2023-02-11T10:14:08.091Z,68.25
2023-02-11T10:16:49.460Z,70.53
2023-02-11T10:19:32.875Z,77.65
2023-02-11T10:22:10.797Z,71.88
2023-02-11T10:24:39.707Z,71.50
2023-02-11T10:27:17.873Z,72.55
2023-02-11T10:29:50.616Z,70.05
2023-02-11T10:32:30.521Z,69.32
2023-02-11T10:35:02.947Z,74.53
2023-02-11T10:37:31.082Z,66.35
2023-02-11T10:39:58.712Z,66.53
2023-02-11T10:42:27.390Z,71.45
2023-02-11T10:45:01.513Z,67.97
2023-02-11T10:47:34.165Z,64.07
2023-02-11T10:50:20.223Z,63.85
2023-02-11T10:52:47.909Z,71.60
2023-02-11T10:55:17.972Z,69.53
2023-02-11T10:57:54.001Z,70.38
2023-02-11T11:00:34.114Z,67.70
2023-02-11T11:03:02.876Z,74.93
2023-02-11T11:05:35.202Z,63.75
2023-02-11T11:08:05.555Z,65.82
2023-02-11T11:10:43.096Z,69.15
2023-02-11T11:13:29.312Z,65.88
2023-02-11T11:16:25.182Z,71.07
2023-02-11T11:18:54.568Z,70.65
2023-02-11T11:21:31.341Z,67.18
2023-02-11T11:24:00.686Z,71.43
2023-02-11T11:26:39.683Z,67.82
2023-02-11T11:29:11.816Z,60.38
2023-02-11T11:31:48.921Z,59.08
2023-02-11T11:34:24.187Z,61.13
2023-02-11T11:36:53.345Z,59.10
2023-02-11T11:39:24.627Z,65.45
2023-02-11T11:41:57.662Z,58.00
2023-02-11T11:44:33.703Z,66.75
2023-02-11T11:47:23.361Z,55.72
2023-02-11T11:50:06.289Z,52.70
2023-02-11T11:52:45.409Z,58.00
2023-02-11T11:55:19.010Z,55.63
2023-02-11T11:57:46.717Z,53.40
2023-02-11T12:00:20.948Z,57.88
2023-02-11T12:03:16.187Z,52.33
2023-02-11T12:05:53.167Z,52.42
2023-02-11T12:08:32.470Z,59.13
2023-02-11T12:11:10.635Z,53.90
2023-02-11T12:13:54.385Z,56.47
2023-02-11T12:16:34.157Z,54.28
2023-02-11T12:19:27.764Z,48.13
2023-02-11T12:22:07.291Z,51.90
2023-02-11T12:24:48.694Z,54.70
2023-02-11T12:27:24.168Z,53.65
2023-02-11T12:30:04.433Z,48.97
2023-02-11T12:32:40.209Z,51.67
2023-02-11T12:35:31.372Z,85.28
2023-02-11T12:38:18.645Z,49.25
2023-02-11T12:40:55.295Z,48.22
2023-02-11T12:43:24.817Z,45.67
2023-02-11T12:46:07.044Z,50.83
2023-02-11T12:48:55.888Z,48.65
2023-02-11T12:51:38.406Z,49.63
2023-02-11T12:54:21.655Z,49.92
2023-02-11T12:56:54.604Z,48.05
2023-02-11T12:59:35.828Z,44.13
2023-02-11T13:02:12.553Z,42.85
2023-02-11T13:04:45.206Z,47.83
2023-02-11T13:07:16.499Z,47.67
2023-02-11T13:09:50.935Z,54.42
2023-02-11T13:12:37.832Z,51.22
2023-02-11T13:15:08.521Z,49.90
2023-02-11T13:17:41.962Z,43.00
2023-02-11T13:20:21.582Z,38.10
2023-02-11T13:22:57.645Z,42.47
2023-02-11T13:25:33.103Z,43.15
2023-02-11T13:28:19.153Z,41.42
2023-02-11T13:30:52.161Z,37.42
2023-02-11T13:33:32.740Z,38.85
2023-02-11T13:36:20.526Z,80.40
2023-02-11T13:38:58.260Z,39.90
2023-02-11T13:41:30.581Z,40.83
2023-02-11T13:44:02.843Z,33.40
2023-02-11T13:46:49.706Z,38.53
2023-02-11T13:49:23.573Z,39.38
2023-02-11T13:51:52.313Z,32.95
2023-02-11T13:54:29.285Z,36.53
2023-02-11T13:57:32.609Z,38.75
2023-02-11T14:00:03.126Z,35.95
2023-02-11T14:05:44.380Z,35.47
2023-02-11T14:08:39.523Z,34.45
2023-02-11T14:11:12.327Z,39.00
2023-02-11T14:14:06.069Z,34.75
2023-02-11T14:16:38.313Z,31.95
2023-02-11T14:19:07.084Z,34.63
2023-02-11T14:21:38.986Z,34.70
2023-02-11T14:24:43.916Z,34.40
2023-02-11T14:27:21.389Z,38.08
2023-02-11T14:30:01.699Z,32.90
2023-02-11T14:32:41.443Z,36.00
2023-02-11T14:35:15.118Z,32.03
2023-02-11T14:37:50.964Z,34.63
2023-02-11T14:40:27.820Z,34.80
2023-02-11T14:42:57.322Z,27.13
2023-02-11T14:45:28.223Z,32.03
2023-02-11T14:48:04.361Z,25.52
2023-02-11T14:50:38.279Z,26.40
2023-02-11T14:53:06.590Z,26.58
2023-02-11T14:55:36.994Z,27.77
2023-02-11T14:58:09.428Z,21.67
2023-02-11T15:00:37.096Z,26.13
2023-02-11T15:03:06.252Z,29.08
2023-02-11T15:05:33.934Z,26.00
2023-02-11T15:08:04.148Z,23.13
2023-02-11T15:10:34.509Z,22.40
2023-02-11T15:13:03.574Z,22.70
2023-02-11T15:15:32.605Z,22.70
2023-02-11T15:18:04.347Z,24.00
2023-02-11T15:20:35.864Z,21.33
2023-02-11T15:23:07.138Z,21.45
2023-02-11T15:25:35.969Z,21.77
2023-02-11T15:28:20.904Z,21.55
2023-02-11T15:30:48.671Z,18.88
2023-02-11T15:33:25.259Z,18.65
2023-02-11T15:35:54.387Z,19.05
2023-02-11T15:38:22.039Z,18.45
2023-02-11T15:40:55.828Z,19.25
2023-02-11T15:43:23.768Z,18.48
2023-02-11T15:46:02.570Z,19.10
2023-02-11T15:48:38.265Z,21.38
2023-02-11T15:51:19.480Z,22.02
2023-02-11T15:53:52.690Z,16.13
2023-02-11T15:56:25.388Z,19.02
2023-02-11T15:58:55.442Z,17.85
2023-02-11T16:01:33.523Z,17.33
2023-02-11T16:04:02.205Z,17.98
2023-02-11T16:06:39.853Z,18.05
2023-02-11T16:09:24.547Z,18.05
2023-02-11T16:11:58.021Z,20.13
2023-02-11T16:14:31.019Z,24.27
2023-02-11T16:17:01.755Z,18.55
2023-02-11T16:19:30.683Z,17.40
2023-02-11T16:22:02.224Z,16.92
2023-02-11T16:24:33.062Z,15.82
2023-02-11T16:27:02.327Z,16.83
2023-02-11T16:29:32.297Z,16.58
2023-02-11T16:32:09.109Z,16.27
2023-02-11T16:34:37.614Z,14.75
2023-02-11T16:37:07.078Z,17.70
2023-02-11T16:39:34.898Z,14.18
2023-02-11T16:42:04.718Z,14.68
2023-02-11T16:44:34.390Z,15.38
2023-02-11T16:47:04.145Z,14.93
2023-02-11T16:49:35.560Z,17.67
2023-02-11T16:52:07.659Z,16.13
2023-02-11T16:54:36.646Z,15.15
2023-02-11T16:57:10.179Z,14.68
2023-02-11T16:59:37.831Z,15.05
2023-02-11T17:02:05.656Z,16.08
2023-02-11T17:04:34.331Z,16.77
2023-02-11T17:07:02.075Z,14.57
2023-02-11T17:09:31.112Z,14.70
2023-02-11T17:12:00.348Z,14.77
2023-02-11T17:14:28.156Z,16.40
2023-02-11T17:16:55.832Z,13.32
2023-02-11T17:19:23.566Z,13.18
2023-02-11T17:21:52.903Z,10.30
2023-02-11T17:24:21.538Z,11.85
2023-02-11T17:26:49.845Z,10.50
2023-02-11T17:29:21.955Z,14.15
2023-02-11T17:31:51.438Z,9.95
2023-02-11T17:34:20.141Z,11.40
2023-02-11T17:36:47.825Z,11.90
2023-02-11T17:39:15.615Z,12.73
2023-02-11T17:41:43.330Z,16.02
2023-02-11T17:44:14.047Z,15.18
2023-02-11T17:46:43.407Z,13.90
2023-02-11T17:49:11.479Z,12.32
2023-02-11T17:51:40.625Z,13.13
2023-02-11T17:54:11.659Z,11.57
2023-02-11T17:56:39.898Z,11.48
2023-02-11T17:59:09.094Z,13.23
2023-02-11T18:01:38.190Z,10.38
2023-02-11T18:04:07.869Z,12.13
2023-02-11T18:06:35.606Z,12.07
2023-02-11T18:09:04.299Z,11.05
2023-02-11T18:11:33.950Z,11.07
2023-02-11T18:14:02.098Z,15.95
2023-02-11T18:16:30.512Z,11.55
2023-02-11T18:18:59.290Z,13.10
2023-02-11T18:21:28.314Z,9.15
2023-02-11T18:23:56.922Z,11.35
2023-02-11T18:26:27.957Z,12.25
2023-02-11T18:28:57.468Z,12.15
2023-02-11T18:31:26.376Z,12.63
2023-02-11T18:33:54.270Z,11.00
2023-02-11T18:36:22.714Z,12.15
2023-02-11T18:38:53.564Z,13.52
2023-02-11T18:41:22.100Z,14.63
2023-02-11T18:43:50.320Z,12.98
2023-02-11T18:46:18.123Z,12.05
2023-02-11T18:48:46.210Z,11.05
2023-02-11T18:51:16.078Z,10.65
2023-02-11T18:53:43.787Z,11.10
2023-02-11T18:56:15.039Z,11.35
2023-02-11T18:58:42.792Z,10.48
2023-02-11T19:01:12.849Z,11.50
2023-02-11T19:03:40.597Z,15.80
2023-02-11T19:06:09.200Z,13.15
2023-02-11T19:08:36.827Z,12.57
2023-02-11T19:11:05.633Z,11.18
2023-02-11T19:13:34.650Z,11.38
2023-02-11T19:16:08.685Z,13.75
2023-02-11T19:18:38.587Z,11.60
2023-02-11T19:21:10.306Z,10.10
2023-02-11T19:23:38.321Z,11.15
2023-02-11T19:26:06.615Z,9.85
2023-02-11T19:28:37.023Z,10.65
2023-02-11T19:31:09.298Z,9.63
2023-02-11T19:33:37.364Z,9.68
2023-02-11T19:36:07.559Z,12.15
2023-02-11T19:38:36.231Z,11.15
2023-02-11T19:41:04.987Z,10.85
2023-02-11T19:43:32.672Z,10.57
2023-02-11T19:46:02.292Z,11.73
2023-02-11T19:48:30.389Z,10.37
2023-02-11T19:50:58.140Z,10.88
2023-02-11T19:53:25.814Z,10.02
2023-02-11T19:55:53.690Z,11.02
2023-02-11T19:58:21.613Z,11.13
2023-02-11T20:00:49.296Z,10.82
2023-02-11T20:03:18.531Z,12.27
2023-02-11T20:05:47.700Z,15.48
2023-02-11T20:08:16.936Z,11.98
2023-02-11T20:10:44.612Z,12.57
2023-02-11T20:13:12.277Z,14.43
2023-02-11T20:15:40.035Z,13.63
2023-02-11T20:18:07.744Z,11.20
2023-02-11T20:20:38.668Z,12.07
2023-02-11T20:23:06.351Z,13.00
2023-02-11T20:25:34.010Z,12.20
2023-02-11T20:28:01.694Z,12.27
2023-02-11T20:30:29.328Z,12.48
2023-02-11T20:32:58.382Z,12.05
2023-02-11T20:35:25.979Z,14.05
2023-02-11T20:37:55.052Z,12.98
2023-02-11T20:40:22.745Z,16.02
2023-02-11T20:42:50.541Z,12.35
2023-02-11T20:45:18.376Z,12.38
2023-02-11T20:47:46.015Z,12.25
2023-02-11T20:50:13.805Z,13.45
2023-02-11T20:52:41.444Z,12.60
2023-02-11T20:55:10.596Z,14.00
2023-02-11T20:57:38.250Z,12.10
2023-02-11T21:00:06.939Z,12.85
2023-02-11T21:02:34.606Z,10.90
2023-02-11T21:05:02.283Z,13.38
2023-02-11T21:07:31.299Z,13.43
2023-02-11T21:09:58.933Z,11.38
2023-02-11T21:12:27.990Z,13.43
2023-02-11T21:14:57.103Z,15.75
2023-02-11T21:17:26.273Z,16.95
2023-02-11T21:19:53.953Z,13.95
2023-02-11T21:22:21.585Z,13.32
2023-02-11T21:24:49.339Z,14.35
2023-02-11T21:27:17.276Z,13.93
2023-02-11T21:29:54.111Z,11.63
2023-02-11T21:32:22.334Z,13.38
2023-02-11T21:34:50.069Z,14.40
2023-02-11T21:37:17.729Z,17.98
2023-02-11T21:39:45.383Z,12.98
2023-02-11T21:42:13.082Z,12.85
2023-02-11T21:44:40.715Z,16.88
2023-02-11T21:47:09.689Z,16.80
2023-02-11T21:49:37.430Z,17.45
2023-02-11T21:52:05.702Z,13.18
2023-02-11T21:54:33.396Z,14.77
2023-02-11T21:57:02.972Z,18.33
2023-02-11T21:59:31.684Z,14.85
2023-02-11T22:01:59.794Z,14.57
2023-02-11T22:04:29.020Z,13.20
2023-02-11T22:06:56.756Z,15.85
2023-02-11T22:09:24.403Z,16.98
2023-02-11T22:11:52.966Z,16.45
2023-02-11T22:14:20.637Z,15.70
2023-02-11T22:16:48.925Z,17.75
2023-02-11T22:19:17.195Z,15.02
2023-02-11T22:21:46.215Z,14.75
2023-02-11T22:24:13.879Z,15.45
2023-02-11T22:26:41.565Z,14.57
2023-02-11T22:29:09.278Z,17.98
2023-02-11T22:31:37.511Z,20.73
2023-02-11T22:34:06.066Z,19.85
2023-02-11T22:36:35.730Z,16.75
2023-02-11T22:39:07.066Z,16.90
2023-02-11T22:41:35.154Z,14.13
2023-02-11T22:44:02.890Z,17.23
2023-02-11T22:46:30.864Z,19.95
2023-02-11T22:48:58.642Z,17.80
2023-02-11T22:51:29.359Z,19.48
2023-02-11T22:53:58.835Z,21.23
2023-02-11T22:56:28.959Z,21.80
2023-02-11T22:58:58.986Z,16.25
2023-02-11T23:01:26.993Z,20.05
2023-02-11T23:03:54.722Z,17.95
2023-02-11T23:06:22.459Z,20.27
2023-02-11T23:08:50.145Z,16.05
2023-02-11T23:11:21.118Z,17.08
2023-02-11T23:13:51.941Z,20.40
2023-02-11T23:16:22.710Z,20.80
2023-02-11T23:18:51.142Z,16.52
2023-02-11T23:21:22.123Z,18.02
2023-02-11T23:23:54.433Z,15.82
2023-02-11T23:26:22.107Z,14.70
2023-02-11T23:28:51.495Z,18.77
2023-02-11T23:31:21.586Z,21.90
2023-02-11T23:33:49.975Z,18.70
2023-02-11T23:36:19.221Z,17.15
2023-02-11T23:38:47.056Z,15.07
2023-02-11T23:41:15.512Z,20.13
2023-02-11T23:43:43.420Z,22.10
2023-02-11T23:46:12.775Z,86.43
2023-02-11T23:48:40.941Z,33.05
2023-02-11T23:51:10.084Z,19.10
2023-02-11T23:53:38.176Z,25.77
2023-02-11T23:56:08.970Z,19.80
2023-02-11T23:58:37.183Z,18.35
